createdAt,value
2023-01-04T00:01:23.301Z,1.61
2023-01-04T00:03:55.248Z,1.38
2023-01-04T00:06:27.280Z,1.20
2023-01-04T00:08:59.247Z,1.30
2023-01-04T00:11:31.277Z,1.12
2023-01-04T00:14:03.379Z,1.23
2023-01-04T00:16:35.536Z,1.25
2023-01-04T00:19:07.547Z,1.31
2023-01-04T00:21:39.684Z,0.91
2023-01-04T00:24:11.758Z,1.11
2023-01-04T00:26:43.798Z,1.29
2023-01-04T00:29:15.824Z,1.24
2023-01-04T00:31:47.848Z,0.97
2023-01-04T00:34:20.131Z,0.95
2023-01-04T00:36:52.074Z,1.07
2023-01-04T00:39:24.103Z,0.98
2023-01-04T00:42:05.402Z,0.70
2023-01-04T00:44:37.505Z,0.67
2023-01-04T00:47:09.507Z,0.80
2023-01-04T00:49:41.425Z,0.64
2023-01-04T00:52:13.421Z,0.65
2023-01-04T00:54:45.379Z,0.59
2023-01-04T00:57:17.528Z,0.37
2023-01-04T00:59:49.447Z,0.60
2023-01-04T01:02:21.436Z,0.42
2023-01-04T01:04:53.517Z,0.54
2023-01-04T01:07:25.447Z,0.53
2023-01-04T01:09:57.391Z,0.57
2023-01-04T01:12:30.328Z,0.51
2023-01-04T01:15:02.523Z,0.44
2023-01-04T01:17:35.183Z,0.56
2023-01-04T01:20:07.647Z,0.55
2023-01-04T01:22:39.558Z,0.24
2023-01-04T01:25:11.460Z,0.35
2023-01-04T01:27:43.443Z,0.36
2023-01-04T01:30:15.393Z,0.36
2023-01-04T01:32:47.337Z,0.35
2023-01-04T01:35:19.334Z,0.46
2023-01-04T01:37:51.230Z,0.38
2023-01-04T01:40:23.183Z,0.36
2023-01-04T01:42:55.607Z,0.30
2023-01-04T01:45:34.677Z,0.32
2023-01-04T01:48:22.494Z,0.12
2023-01-04T01:50:59.524Z,0.14
2023-01-04T01:53:36.063Z,0.35
2023-01-04T01:56:11.094Z,0.45
2023-01-04T01:58:46.573Z,0.25
2023-01-04T02:01:19.012Z,0.26
2023-01-04T02:03:51.113Z,0.40
2023-01-04T02:06:29.894Z,0.42
2023-01-04T02:09:02.941Z,0.35
2023-01-04T02:11:34.918Z,0.14
2023-01-04T02:14:28.276Z,0.09
2023-01-04T02:17:12.168Z,0.12
2023-01-04T02:20:08.856Z,-0.08
2023-01-04T02:23:04.967Z,-0.05
2023-01-04T02:25:58.805Z,-0.01
2023-01-04T02:28:36.688Z,-0.18
2023-01-04T02:31:11.680Z,-0.21
2023-01-04T02:34:02.341Z,-0.20
2023-01-04T02:36:42.316Z,-0.26
2023-01-04T02:39:23.115Z,-0.22
2023-01-04T02:42:01.486Z,-0.15
2023-01-04T02:44:54.849Z,-0.28
2023-01-04T02:47:53.439Z,-0.20
2023-01-04T02:50:40.186Z,-0.27
2023-01-04T02:53:22.871Z,-0.37
2023-01-04T02:56:09.726Z,-0.57
2023-01-04T02:59:18.707Z,-0.58
2023-01-04T03:02:15.385Z,-0.53
2023-01-04T03:05:15.072Z,-0.57
2023-01-04T03:08:34.561Z,-0.56
2023-01-04T03:11:30.904Z,-0.56
2023-01-04T03:14:30.931Z,-0.56
2023-01-04T03:17:10.306Z,-0.74
2023-01-04T03:19:52.224Z,-0.84
2023-01-04T03:22:56.221Z,-0.74
2023-01-04T03:26:10.055Z,-0.66
2023-01-04T03:29:01.789Z,-0.68
2023-01-04T03:31:59.454Z,-0.88
2023-01-04T03:34:50.046Z,-0.80
2023-01-04T03:37:38.315Z,-0.75
2023-01-04T03:40:39.575Z,-0.72
2023-01-04T03:43:42.392Z,-0.77
2023-01-04T03:46:52.959Z,-0.81
2023-01-04T03:49:39.897Z,-0.83
2023-01-04T03:52:14.549Z,-0.78
2023-01-04T03:54:49.465Z,-0.80
2023-01-04T03:57:23.463Z,-0.86
2023-01-04T04:00:09.882Z,-0.96
2023-01-04T04:02:42.007Z,-0.89
2023-01-04T04:05:39.608Z,-0.89
2023-01-04T04:08:29.559Z,-1.07
2023-01-04T04:11:23.401Z,-0.94
2023-01-04T04:13:55.341Z,-1.06
2023-01-04T04:16:28.232Z,-1.15
2023-01-04T04:19:06.395Z,-1.11
2023-01-04T04:21:40.393Z,-1.14
2023-01-04T04:24:18.638Z,-1.10
2023-01-04T04:26:51.663Z,-1.21
2023-01-04T04:29:24.666Z,-1.17
2023-01-04T04:31:56.596Z,-1.38
2023-01-04T04:34:28.614Z,-1.25
2023-01-04T04:37:00.540Z,-1.19
2023-01-04T04:39:32.806Z,-1.22
2023-01-04T04:42:04.805Z,-1.22
2023-01-04T04:44:36.754Z,-1.36
2023-01-04T04:47:08.676Z,-1.38
2023-01-04T04:49:40.535Z,-1.44
2023-01-04T04:52:12.417Z,-1.42
2023-01-04T04:54:44.261Z,-1.66
2023-01-04T04:57:16.220Z,-1.53
2023-01-04T04:59:48.157Z,-1.45
2023-01-04T05:02:20.218Z,-1.44
2023-01-04T05:04:52.318Z,-1.67
2023-01-04T05:07:24.274Z,-1.78
2023-01-04T05:09:56.217Z,-1.48
2023-01-04T05:12:46.736Z,-1.60
2023-01-04T05:15:18.992Z,-1.40
2023-01-04T05:17:50.920Z,-1.53
2023-01-04T05:20:22.946Z,-1.52
2023-01-04T05:22:54.876Z,-1.35
2023-01-04T05:25:27.046Z,-1.39
2023-01-04T05:27:59.172Z,-1.27
2023-01-04T05:30:49.729Z,-1.37
2023-01-04T05:33:22.826Z,-1.48
2023-01-04T05:35:56.353Z,-1.38
2023-01-04T05:38:28.510Z,-1.40
2023-01-04T05:41:00.436Z,-1.59
2023-01-04T05:43:32.390Z,-1.56
2023-01-04T05:46:04.434Z,-1.75
2023-01-04T05:48:36.627Z,-1.89
2023-01-04T05:51:08.463Z,-1.68
2023-01-04T05:53:40.674Z,-1.51
2023-01-04T05:56:12.612Z,-1.55
2023-01-04T05:58:44.572Z,-1.61
2023-01-04T06:01:16.677Z,-1.58
2023-01-04T06:03:48.747Z,-1.55
2023-01-04T06:06:20.954Z,-1.58
2023-01-04T06:08:52.893Z,-1.75
2023-01-04T06:11:27.781Z,-1.55
2023-01-04T06:13:59.988Z,-1.53
2023-01-04T06:16:31.974Z,-1.62
2023-01-04T06:19:04.129Z,-1.49
2023-01-04T06:21:35.999Z,-1.60
2023-01-04T06:24:07.893Z,-1.46
2023-01-04T06:26:39.802Z,-1.52
2023-01-04T06:29:11.780Z,-1.53
2023-01-04T06:31:43.941Z,-1.51
2023-01-04T06:34:15.850Z,-1.56
2023-01-04T06:36:47.904Z,-1.77
2023-01-04T06:39:19.856Z,-1.54
2023-01-04T06:41:51.772Z,-1.59
2023-01-04T06:44:23.643Z,-1.75
2023-01-04T06:46:55.505Z,-1.55
2023-01-04T06:49:27.410Z,-1.63
2023-01-04T06:51:59.283Z,-1.51
2023-01-04T06:54:32.935Z,-1.64
2023-01-04T06:57:04.930Z,-1.48
2023-01-04T06:59:36.888Z,-1.36
2023-01-04T07:02:10.595Z,-1.39
2023-01-04T07:04:43.700Z,-1.28
2023-01-04T07:07:15.728Z,-1.33
2023-01-04T07:09:47.728Z,-1.42
2023-01-04T07:12:19.697Z,-1.35
2023-01-04T07:14:51.904Z,-1.29
2023-01-04T07:17:29.751Z,-1.19
2023-01-04T07:20:02.180Z,-1.41
2023-01-04T07:22:34.092Z,-1.26
2023-01-04T07:25:06.340Z,-1.05
2023-01-04T07:27:38.304Z,-1.20
2023-01-04T07:30:11.289Z,-1.01
2023-01-04T07:32:43.144Z,-0.90
2023-01-04T07:35:15.269Z,-0.82
2023-01-04T07:37:50.891Z,-0.92
2023-01-04T07:40:26.645Z,-0.90
2023-01-04T07:42:59.870Z,-0.88
2023-01-04T07:45:31.868Z,-0.74
2023-01-04T07:48:03.976Z,-0.70
2023-01-04T07:50:37.269Z,-0.59
2023-01-04T07:53:09.206Z,-0.55
2023-01-04T07:55:41.138Z,-0.46
2023-01-04T07:58:13.043Z,-0.48
2023-01-04T08:00:44.987Z,-0.32
2023-01-04T08:03:16.984Z,-0.20
2023-01-04T08:05:48.974Z,-0.17
2023-01-04T08:08:20.824Z,-0.17
2023-01-04T08:10:52.676Z,-0.21
2023-01-04T08:13:24.617Z,-0.15
2023-01-04T08:15:56.759Z,0.01
2023-01-04T08:18:28.914Z,0.08
2023-01-04T08:21:06.392Z,0.28
2023-01-04T08:23:38.517Z,0.28
2023-01-04T08:26:13.060Z,0.43
2023-01-04T08:28:45.327Z,0.27
2023-01-04T08:31:22.758Z,0.46
2023-01-04T08:33:55.460Z,0.61
2023-01-04T08:36:32.658Z,0.63
2023-01-04T08:39:06.893Z,0.71
2023-01-04T08:42:04.280Z,0.82
2023-01-04T08:44:39.672Z,0.84
2023-01-04T08:47:11.660Z,0.81
2023-01-04T08:49:43.652Z,0.92
2023-01-04T08:52:16.281Z,0.97
2023-01-04T08:54:49.467Z,0.95
2023-01-04T08:57:21.392Z,1.06
2023-01-04T08:59:53.295Z,1.09
2023-01-04T09:02:28.037Z,1.06
2023-01-04T09:05:02.695Z,1.03
2023-01-04T09:07:34.762Z,1.17
2023-01-04T09:10:07.189Z,1.25
2023-01-04T09:12:39.144Z,1.17
2023-01-04T09:15:11.321Z,1.23
2023-01-04T09:18:05.227Z,1.30
2023-01-04T09:20:35.508Z,1.43
2023-01-04T09:23:07.437Z,1.48
2023-01-04T09:25:40.469Z,1.58
2023-01-04T09:28:12.564Z,1.44
2023-01-04T09:30:44.496Z,1.66
2023-01-04T09:33:16.450Z,1.63
2023-01-04T09:35:48.497Z,1.97
2023-01-04T09:38:20.485Z,1.98
2023-01-04T09:41:01.795Z,2.12
2023-01-04T09:43:52.101Z,2.20
2023-01-04T09:46:36.039Z,2.41
2023-01-04T09:49:24.860Z,2.54
2023-01-04T09:52:13.580Z,2.55
2023-01-04T09:55:38.173Z,2.65
2023-01-04T09:58:08.488Z,2.73
2023-01-04T10:00:45.323Z,2.84
2023-01-04T10:03:25.792Z,2.78
2023-01-04T10:05:59.379Z,2.60
2023-01-04T10:08:31.844Z,2.93
2023-01-04T10:11:28.431Z,3.09
2023-01-04T10:14:13.968Z,3.02
2023-01-04T10:22:52.965Z,3.09
2023-01-04T10:25:34.789Z,3.19
2023-01-04T10:28:39.835Z,3.20
2023-01-04T10:31:40.831Z,3.27
2023-01-04T10:34:21.431Z,3.16
2023-01-04T10:37:15.860Z,3.54
2023-01-04T10:39:52.759Z,3.56
2023-01-04T10:42:35.307Z,3.42
2023-01-04T10:45:22.627Z,3.69
2023-01-04T10:48:25.342Z,3.49
2023-01-04T10:51:00.997Z,3.62
2023-01-04T10:53:44.928Z,3.58
2023-01-04T10:56:36.961Z,3.60
2023-01-04T10:59:16.756Z,3.74
2023-01-04T11:02:18.765Z,3.65
2023-01-04T11:05:13.789Z,3.81
2023-01-04T11:07:54.361Z,3.88
2023-01-04T11:10:45.008Z,3.94
2023-01-04T11:13:17.243Z,4.06
2023-01-04T11:15:49.406Z,4.06
2023-01-04T11:18:21.696Z,4.18
2023-01-04T11:20:53.831Z,4.06
2023-01-04T11:23:26.047Z,4.22
2023-01-04T11:26:01.323Z,4.28
2023-01-04T11:28:48.798Z,4.20
2023-01-04T11:31:36.487Z,4.31
2023-01-04T11:34:08.390Z,4.33
2023-01-04T11:36:45.669Z,4.36
2023-01-04T11:39:23.686Z,4.37
2023-01-04T11:42:04.847Z,4.40
2023-01-04T11:44:36.967Z,4.34
2023-01-04T11:47:20.850Z,4.33
2023-01-04T11:49:53.261Z,4.29
2023-01-04T11:52:29.537Z,4.35
2023-01-04T11:55:17.301Z,4.34
2023-01-04T11:58:06.683Z,4.22
2023-01-04T12:00:49.793Z,4.27
2023-01-04T12:03:29.704Z,4.39
2023-01-04T12:06:01.687Z,4.34
2023-01-04T12:08:36.118Z,4.27
2023-01-04T12:11:25.636Z,4.27
2023-01-04T12:14:00.034Z,4.29
2023-01-04T12:16:38.754Z,4.36
2023-01-04T12:19:18.332Z,4.10
2023-01-04T12:21:53.834Z,4.37
2023-01-04T12:24:30.261Z,4.38
2023-01-04T12:27:02.581Z,4.14
2023-01-04T12:29:55.077Z,4.39
2023-01-04T12:32:27.004Z,4.41
2023-01-04T12:34:59.057Z,4.30
2023-01-04T12:37:46.324Z,4.48
2023-01-04T12:40:47.516Z,4.52
2023-01-04T12:43:27.050Z,4.55
2023-01-04T12:46:47.079Z,4.37
2023-01-04T12:49:28.171Z,4.56
2023-01-04T12:55:03.302Z,4.58
2023-01-04T12:57:38.326Z,4.59
2023-01-04T13:00:14.209Z,4.53
2023-01-04T13:02:48.572Z,4.48
2023-01-04T13:05:55.514Z,4.52
2023-01-04T13:08:15.403Z,4.50
2023-01-04T13:10:51.874Z,4.43
2023-01-04T13:13:39.007Z,4.50
2023-01-04T13:16:28.375Z,4.41
2023-01-04T13:19:03.322Z,4.54
2023-01-04T13:21:42.699Z,4.51
2023-01-04T13:24:34.561Z,4.51
2023-01-04T13:27:08.767Z,4.55
2023-01-04T13:29:42.055Z,4.59
2023-01-04T13:32:22.062Z,4.55
2023-01-04T13:34:55.890Z,4.55
2023-01-04T13:37:33.577Z,4.60
2023-01-04T13:40:29.068Z,4.51
2023-01-04T13:43:16.172Z,4.60
2023-01-04T13:46:18.592Z,4.58
2023-01-04T13:48:54.130Z,4.48
2023-01-04T13:51:36.354Z,4.60
2023-01-04T13:54:22.789Z,4.61
2023-01-04T13:57:09.072Z,4.37
2023-01-04T13:59:41.031Z,4.43
2023-01-04T14:02:18.441Z,4.57
2023-01-04T14:04:51.588Z,4.57
2023-01-04T14:07:25.101Z,4.57
2023-01-04T14:10:00.373Z,4.48
2023-01-04T14:12:32.350Z,4.43
2023-01-04T14:15:25.283Z,4.49
2023-01-04T14:17:57.824Z,4.57
2023-01-04T14:20:33.095Z,4.56
2023-01-04T14:23:05.700Z,4.42
2023-01-04T14:25:49.400Z,4.56
2023-01-04T14:28:29.893Z,4.55
2023-01-04T14:31:02.704Z,4.55
2023-01-04T14:33:44.024Z,4.47
2023-01-04T14:36:23.215Z,4.49
2023-01-04T14:39:10.296Z,4.36
2023-01-04T14:41:55.134Z,4.37
2023-01-04T14:44:31.174Z,4.49
2023-01-04T14:47:07.616Z,4.37
2023-01-04T14:49:39.734Z,4.55
2023-01-04T14:52:20.482Z,4.41
2023-01-04T14:54:52.672Z,4.44
2023-01-04T14:57:24.685Z,4.50
2023-01-04T14:59:57.129Z,4.48
2023-01-04T15:02:30.752Z,4.46
2023-01-04T15:05:02.949Z,4.41
2023-01-04T15:07:38.479Z,4.43
2023-01-04T15:10:26.223Z,4.51
2023-01-04T15:13:00.928Z,4.43
2023-01-04T15:15:35.980Z,4.44
2023-01-04T15:18:08.745Z,4.45
2023-01-04T15:20:40.949Z,4.47
2023-01-04T15:23:14.237Z,4.29
2023-01-04T15:25:46.227Z,4.29
2023-01-04T15:28:21.875Z,4.38
2023-01-04T15:30:54.364Z,4.34
2023-01-04T15:33:32.408Z,4.19
2023-01-04T15:36:23.277Z,4.23
2023-01-04T15:38:55.951Z,4.02
2023-01-04T15:41:46.363Z,4.02
2023-01-04T15:44:18.359Z,4.20
2023-01-04T15:46:51.614Z,4.18
2023-01-04T15:49:23.842Z,4.02
2023-01-04T15:51:55.851Z,4.16
2023-01-04T15:54:28.918Z,4.21
2023-01-04T15:57:00.857Z,4.21
2023-01-04T15:59:32.832Z,4.16
2023-01-04T16:02:04.913Z,4.13
2023-01-04T16:04:38.035Z,4.19
2023-01-04T16:07:09.986Z,4.26
2023-01-04T16:09:42.003Z,4.26
2023-01-04T16:12:32.698Z,4.26
2023-01-04T16:15:05.065Z,4.31
2023-01-04T16:17:37.084Z,4.34
2023-01-04T16:20:10.081Z,4.22
2023-01-04T16:22:42.652Z,4.35
2023-01-04T16:25:17.393Z,4.24
2023-01-04T16:27:49.277Z,4.19
2023-01-04T16:30:27.791Z,4.04
2023-01-04T16:33:01.870Z,4.18
2023-01-04T16:35:33.821Z,4.18
2023-01-04T16:38:05.677Z,4.24
2023-01-04T16:40:37.672Z,4.22
2023-01-04T16:43:10.036Z,4.21
2023-01-04T16:45:41.967Z,4.24
2023-01-04T16:48:18.410Z,4.33
2023-01-04T16:50:50.771Z,4.20
2023-01-04T16:53:22.691Z,4.18
2023-01-04T16:55:54.652Z,4.26
2023-01-04T16:58:26.493Z,4.26
2023-01-04T17:01:07.169Z,4.40
2023-01-04T17:03:39.298Z,4.47
2023-01-04T17:06:15.917Z,4.47
2023-01-04T17:08:50.340Z,4.34
2023-01-04T17:12:11.528Z,4.33
2023-01-04T17:14:19.902Z,4.39
2023-01-04T17:16:53.093Z,4.34
2023-01-04T17:19:25.269Z,4.47
2023-01-04T17:21:57.272Z,4.31
2023-01-04T17:24:29.245Z,4.13
2023-01-04T17:27:01.252Z,4.32
2023-01-04T17:29:33.285Z,4.32
2023-01-04T17:32:05.501Z,4.35
2023-01-04T17:34:37.487Z,4.27
2023-01-04T17:37:09.344Z,4.15
2023-01-04T17:39:41.176Z,4.22
2023-01-04T17:42:14.166Z,4.10
2023-01-04T17:44:49.623Z,4.28
2023-01-04T17:47:21.635Z,4.19
2023-01-04T17:49:53.496Z,4.24
2023-01-04T17:52:31.029Z,4.14
2023-01-04T17:55:04.203Z,4.39
2023-01-04T17:57:36.207Z,4.27
2023-01-04T18:00:08.939Z,4.16
2023-01-04T18:02:42.439Z,4.17
2023-01-04T18:05:14.561Z,4.29
2023-01-04T18:07:46.522Z,4.36
2023-01-04T18:10:33.041Z,4.31
2023-01-04T18:13:10.431Z,4.40
2023-01-04T18:15:54.979Z,4.35
2023-01-04T18:18:35.201Z,4.44
2023-01-04T18:21:28.516Z,4.42
2023-01-04T18:27:20.982Z,4.20
2023-01-04T18:29:47.187Z,4.19
2023-01-04T18:32:19.302Z,4.32
2023-01-04T18:34:51.334Z,4.29
2023-01-04T18:37:23.311Z,4.46
2023-01-04T18:39:55.243Z,4.39
2023-01-04T18:42:27.116Z,4.37
2023-01-04T18:44:59.156Z,4.12
2023-01-04T18:47:31.994Z,4.49
2023-01-04T18:50:04.011Z,4.40
2023-01-04T18:52:37.310Z,4.24
2023-01-04T18:55:10.806Z,4.24
2023-01-04T18:57:42.775Z,4.37
2023-01-04T19:00:14.896Z,4.40
2023-01-04T19:02:46.951Z,4.52
2023-01-04T19:05:19.672Z,4.48
2023-01-04T19:07:51.852Z,4.52
2023-01-04T19:10:23.821Z,4.59
2023-01-04T19:12:55.784Z,4.54
2023-01-04T19:15:27.710Z,4.52
2023-01-04T19:17:59.655Z,4.54
2023-01-04T19:20:31.681Z,4.38
2023-01-04T19:23:03.608Z,4.49
2023-01-04T19:25:38.208Z,4.12
2023-01-04T19:28:11.656Z,4.49
2023-01-04T19:30:43.886Z,4.62
2023-01-04T19:33:16.023Z,4.51
2023-01-04T19:35:48.024Z,4.54
2023-01-04T19:38:20.011Z,4.46
2023-01-04T19:40:59.889Z,4.72
2023-01-04T19:43:32.156Z,4.47
2023-01-04T19:46:09.115Z,4.68
2023-01-04T19:48:41.313Z,4.33
2023-01-04T19:51:17.546Z,4.71
2023-01-04T19:53:49.494Z,4.67
2023-01-04T19:56:21.496Z,4.56
2023-01-04T19:58:53.448Z,4.53
2023-01-04T20:01:25.619Z,4.63
2023-01-04T20:03:57.689Z,4.46
2023-01-04T20:06:29.953Z,4.54
2023-01-04T20:09:02.167Z,4.67
2023-01-04T20:11:34.158Z,4.60
2023-01-04T20:14:06.277Z,4.83
2023-01-04T20:16:38.254Z,4.73
2023-01-04T20:19:10.256Z,4.68
2023-01-04T20:21:42.260Z,4.68
2023-01-04T20:24:14.283Z,4.78
2023-01-04T20:26:46.932Z,4.65
2023-01-04T20:29:18.900Z,4.72
2023-01-04T20:31:50.948Z,4.69
2023-01-04T20:34:22.895Z,4.73
2023-01-04T20:36:54.859Z,4.76
2023-01-04T20:39:26.717Z,4.81
2023-01-04T20:42:17.155Z,4.66
2023-01-04T20:44:49.005Z,4.81
2023-01-04T20:47:21.189Z,4.88
2023-01-04T20:49:53.143Z,4.97
2023-01-04T20:52:25.052Z,4.96
2023-01-04T20:54:57.007Z,4.83
2023-01-04T20:57:28.954Z,4.89
2023-01-04T21:00:00.795Z,4.73
2023-01-04T21:02:37.891Z,4.93
2023-01-04T21:05:10.768Z,4.96
2023-01-04T21:07:42.664Z,4.98
2023-01-04T21:10:14.627Z,5.10
2023-01-04T21:12:47.244Z,5.06
2023-01-04T21:15:19.211Z,5.06
2023-01-04T21:17:51.285Z,5.03
2023-01-04T21:20:24.752Z,5.04
2023-01-04T21:22:56.741Z,5.11
2023-01-04T21:25:28.705Z,5.07
2023-01-04T21:28:02.686Z,4.99
2023-01-04T21:30:35.043Z,5.18
2023-01-04T21:33:07.387Z,5.14
2023-01-04T21:35:40.712Z,5.22
2023-01-04T21:38:12.948Z,5.14
2023-01-04T21:40:44.838Z,4.95
2023-01-04T21:43:18.087Z,5.22
2023-01-04T21:45:50.007Z,5.33
2023-01-04T21:48:21.956Z,5.31
2023-01-04T21:50:55.282Z,5.32
2023-01-04T21:53:29.978Z,5.37
2023-01-04T21:56:10.281Z,5.40
2023-01-04T21:58:43.134Z,5.33
2023-01-04T22:01:21.758Z,5.34
2023-01-04T22:03:54.083Z,5.37
2023-01-04T22:06:26.188Z,5.33
2023-01-04T22:08:58.990Z,5.42
2023-01-04T22:11:30.939Z,5.36
2023-01-04T22:14:03.554Z,5.50
2023-01-04T22:16:35.525Z,5.41
2023-01-04T22:19:07.490Z,5.32
2023-01-04T22:21:39.694Z,5.45
2023-01-04T22:24:12.977Z,5.47
2023-01-04T22:26:45.575Z,5.58
2023-01-04T22:29:17.734Z,5.56
2023-01-04T22:31:49.756Z,5.49
2023-01-04T22:34:22.001Z,5.47
2023-01-04T22:36:53.893Z,5.51
2023-01-04T22:39:26.067Z,5.48
2023-01-04T22:41:57.982Z,5.52
2023-01-04T22:44:29.912Z,5.59
2023-01-04T22:47:02.057Z,5.59
2023-01-04T22:49:34.059Z,5.56
2023-01-04T22:52:06.043Z,5.67
2023-01-04T22:54:38.023Z,5.65
2023-01-04T22:57:09.975Z,5.71
2023-01-04T22:59:41.949Z,5.73
2023-01-04T23:02:13.923Z,5.74
2023-01-04T23:04:45.842Z,5.59
2023-01-04T23:07:17.838Z,5.82
2023-01-04T23:09:49.749Z,5.82
2023-01-04T23:12:21.687Z,5.75
2023-01-04T23:14:53.645Z,5.66
2023-01-04T23:17:25.646Z,5.79
2023-01-04T23:19:57.918Z,5.80
2023-01-04T23:22:29.971Z,5.78
2023-01-04T23:25:02.114Z,5.85
2023-01-04T23:27:34.023Z,5.93
2023-01-04T23:30:06.459Z,5.89
2023-01-04T23:32:38.372Z,6.04
2023-01-04T23:35:10.543Z,5.93
2023-01-04T23:37:42.482Z,5.87
2023-01-04T23:40:14.988Z,6.00
2023-01-04T23:42:47.249Z,6.11
2023-01-04T23:45:19.457Z,6.12
2023-01-04T23:47:51.421Z,5.93
2023-01-04T23:50:23.426Z,6.00
2023-01-04T23:52:55.387Z,5.99
2023-01-04T23:55:27.482Z,6.13
2023-01-04T23:57:59.468Z,6.16
